createdAt,value
2022-07-26T00:01:53.498Z,8.27
2022-07-26T00:04:55.911Z,7.37
2022-07-26T00:08:10.730Z,6.80
2022-07-26T00:11:13.407Z,7.12
2022-07-26T00:14:15.551Z,6.12
2022-07-26T00:17:18.104Z,4.62
2022-07-26T00:20:20.280Z,5.93
2022-07-26T00:23:22.824Z,6.22
2022-07-26T00:26:24.947Z,4.70
2022-07-26T00:29:27.415Z,5.18
2022-07-26T00:32:29.560Z,9.95
2022-07-26T00:35:32.154Z,6.53
2022-07-26T00:38:34.566Z,5.62
2022-07-26T00:41:37.433Z,5.30
2022-07-26T00:44:45.175Z,6.78
2022-07-26T00:47:47.731Z,7.07
2022-07-26T00:50:50.293Z,5.35
2022-07-26T00:53:52.851Z,8.07
2022-07-26T00:56:55.350Z,12.13
2022-07-26T01:00:01.101Z,6.75
2022-07-26T01:03:03.399Z,7.03
2022-07-26T01:06:06.079Z,6.12
2022-07-26T01:09:09.395Z,5.85
2022-07-26T01:12:12.702Z,4.82
2022-07-26T01:15:16.147Z,4.95
2022-07-26T01:18:18.599Z,6.22
2022-07-26T01:21:22.160Z,5.10
2022-07-26T01:24:24.591Z,5.45
2022-07-26T01:27:29.604Z,5.53
2022-07-26T01:30:36.164Z,7.12
2022-07-26T01:33:38.353Z,5.12
2022-07-26T01:36:40.730Z,4.97
2022-07-26T01:39:44.232Z,5.75
2022-07-26T01:42:46.708Z,6.55
2022-07-26T01:45:50.170Z,7.12
2022-07-26T01:48:53.398Z,9.65
2022-07-26T01:51:55.532Z,8.25
2022-07-26T01:54:57.951Z,6.82
2022-07-26T01:58:00.083Z,7.65
2022-07-26T02:01:02.583Z,8.27
2022-07-26T02:04:05.355Z,4.80
2022-07-26T02:07:13.135Z,12.77
2022-07-26T02:10:16.471Z,9.38
2022-07-26T02:13:19.800Z,5.25
2022-07-26T02:16:22.387Z,8.30
2022-07-26T02:19:24.583Z,5.65
2022-07-26T02:22:27.115Z,5.07
2022-07-26T02:25:30.053Z,5.12
2022-07-26T02:28:32.482Z,7.30
2022-07-26T02:31:34.645Z,7.25
2022-07-26T02:34:37.484Z,11.40
2022-07-26T02:37:42.597Z,7.47
2022-07-26T02:40:46.535Z,5.25
2022-07-26T02:43:48.675Z,8.60
2022-07-26T02:46:51.597Z,9.52
2022-07-26T02:49:53.764Z,4.82
2022-07-26T02:52:56.555Z,6.12
2022-07-26T02:55:58.712Z,4.62
2022-07-26T02:59:01.130Z,6.82
2022-07-26T03:02:04.610Z,8.18
2022-07-26T03:05:08.289Z,9.13
2022-07-26T03:08:10.492Z,8.18
2022-07-26T03:11:12.878Z,8.80
2022-07-26T03:14:14.987Z,7.43
2022-07-26T03:17:17.570Z,6.50
2022-07-26T03:20:19.690Z,6.78
2022-07-26T03:23:22.071Z,5.00
2022-07-26T03:26:24.224Z,7.68
2022-07-26T03:29:26.694Z,9.98
2022-07-26T03:32:28.831Z,10.40
2022-07-26T03:35:31.238Z,7.15
2022-07-26T03:38:38.933Z,5.75
2022-07-26T03:41:41.664Z,7.90
2022-07-26T03:44:43.857Z,5.78
2022-07-26T03:47:46.559Z,6.85
2022-07-26T03:50:48.725Z,7.43
2022-07-26T03:53:51.471Z,6.62
2022-07-26T03:56:53.775Z,9.38
2022-07-26T03:59:56.200Z,5.82
2022-07-26T04:02:58.457Z,7.68
2022-07-26T04:06:00.999Z,5.65
2022-07-26T04:09:05.394Z,9.27
2022-07-26T04:12:08.817Z,7.65
2022-07-26T04:15:11.159Z,5.40
2022-07-26T04:18:16.469Z,5.82
2022-07-26T04:21:18.813Z,7.47
2022-07-26T04:24:21.213Z,6.68
2022-07-26T04:27:27.987Z,6.87
2022-07-26T04:30:30.398Z,10.07
2022-07-26T04:33:33.143Z,7.55
2022-07-26T04:36:35.523Z,5.55
2022-07-26T04:39:37.645Z,6.85
2022-07-26T04:42:40.099Z,9.43
2022-07-26T04:45:42.311Z,10.15
2022-07-26T04:48:44.763Z,8.88
2022-07-26T04:51:46.923Z,6.35
2022-07-26T04:54:49.330Z,8.73
2022-07-26T04:57:52.567Z,8.93
2022-07-26T05:01:11.197Z,9.57
2022-07-26T05:04:13.561Z,8.38
2022-07-26T05:07:15.992Z,8.60
2022-07-26T05:10:20.078Z,8.07
2022-07-26T05:13:23.071Z,10.27
2022-07-26T05:16:32.549Z,7.12
2022-07-26T05:19:35.151Z,7.57
2022-07-26T05:22:37.935Z,8.73
2022-07-26T05:25:41.533Z,13.50
2022-07-26T05:28:43.664Z,12.52
2022-07-26T05:31:46.163Z,9.30
2022-07-26T05:34:48.335Z,10.90
2022-07-26T05:37:50.825Z,16.60
2022-07-26T05:40:52.930Z,10.00
2022-07-26T05:43:55.308Z,12.88
2022-07-26T05:46:57.527Z,8.23
2022-07-26T05:50:00.214Z,9.95
2022-07-26T05:53:02.359Z,7.57
2022-07-26T05:56:05.344Z,8.13
2022-07-26T05:59:07.445Z,7.60
2022-07-26T06:02:10.023Z,8.05
2022-07-26T06:05:12.881Z,6.85
2022-07-26T06:08:15.039Z,10.75
2022-07-26T06:11:17.443Z,10.02
2022-07-26T06:14:20.263Z,13.70
2022-07-26T06:17:22.885Z,7.82
2022-07-26T06:20:25.079Z,8.65
2022-07-26T06:23:30.966Z,14.70
2022-07-26T06:26:37.159Z,9.77
2022-07-26T06:29:40.441Z,14.55
2022-07-26T06:32:45.413Z,9.00
2022-07-26T06:35:48.077Z,9.77
2022-07-26T06:38:50.245Z,12.80
2022-07-26T06:41:52.625Z,12.40
2022-07-26T06:44:56.892Z,7.65
2022-07-26T06:47:59.421Z,9.95
2022-07-26T06:51:01.621Z,10.63
2022-07-26T06:54:05.514Z,9.35
2022-07-26T06:57:08.149Z,16.20
2022-07-26T07:00:11.243Z,10.05
2022-07-26T07:03:13.405Z,9.95
2022-07-26T07:06:16.291Z,11.50
2022-07-26T07:09:18.643Z,13.07
2022-07-26T07:12:21.547Z,14.20
2022-07-26T07:15:23.689Z,21.20
2022-07-26T07:18:26.091Z,11.30
2022-07-26T07:21:28.315Z,13.10
2022-07-26T07:24:30.970Z,9.73
2022-07-26T07:27:33.774Z,8.25
2022-07-26T07:30:36.170Z,9.98
2022-07-26T07:33:53.016Z,7.80
2022-07-26T07:36:56.465Z,8.35
2022-07-26T07:39:59.729Z,11.75
2022-07-26T07:43:02.231Z,8.77
2022-07-26T07:46:04.575Z,8.18
2022-07-26T07:49:07.417Z,11.48
2022-07-26T07:52:10.052Z,14.75
2022-07-26T07:55:36.106Z,7.43
2022-07-26T07:58:34.833Z,12.37
2022-07-26T08:01:40.477Z,13.25
2022-07-26T08:04:43.479Z,16.37
2022-07-26T08:07:45.736Z,6.78
2022-07-26T08:10:52.041Z,8.68
2022-07-26T08:13:54.623Z,9.60
2022-07-26T08:16:57.694Z,8.15
2022-07-26T08:20:00.615Z,14.00
2022-07-26T08:23:03.265Z,6.80
2022-07-26T08:26:06.941Z,10.13
2022-07-26T08:29:09.647Z,10.23
2022-07-26T08:32:11.942Z,13.07
2022-07-26T08:35:17.803Z,8.43
2022-07-26T08:38:22.115Z,9.98
2022-07-26T08:41:24.509Z,9.05
2022-07-26T08:44:26.764Z,13.32
2022-07-26T08:47:37.723Z,12.88
2022-07-26T08:50:42.287Z,9.15
2022-07-26T08:53:45.404Z,17.15
2022-07-26T08:56:52.502Z,7.93
2022-07-26T09:00:29.747Z,7.22
2022-07-26T09:03:32.495Z,6.97
2022-07-26T09:06:34.902Z,9.70
2022-07-26T09:09:56.008Z,10.48
2022-07-26T09:12:58.601Z,6.35
2022-07-26T09:16:10.793Z,7.53
2022-07-26T09:19:19.528Z,6.37
2022-07-26T09:22:21.624Z,8.90
2022-07-26T09:25:25.387Z,9.80
2022-07-26T09:28:29.890Z,8.07
2022-07-26T09:31:32.445Z,6.97
2022-07-26T09:34:34.607Z,6.87
2022-07-26T09:37:41.102Z,7.45
2022-07-26T09:40:44.903Z,9.38
2022-07-26T09:46:59.120Z,12.13
2022-07-26T09:50:13.925Z,6.70
2022-07-26T09:53:16.139Z,11.48
2022-07-26T09:56:19.830Z,11.70
2022-07-26T09:59:24.101Z,9.60
2022-07-26T10:02:27.543Z,11.75
2022-07-26T10:05:29.955Z,8.32
2022-07-26T10:08:32.272Z,8.27
2022-07-26T10:11:55.094Z,7.30
2022-07-26T10:14:57.293Z,13.98
2022-07-26T10:17:59.724Z,13.90
2022-07-26T10:21:20.834Z,10.00
2022-07-26T10:24:29.104Z,10.20
2022-07-26T10:27:41.649Z,8.43
2022-07-26T10:30:44.153Z,10.82
2022-07-26T10:33:49.515Z,9.95
2022-07-26T10:37:01.823Z,9.63
2022-07-26T10:40:19.211Z,9.98
2022-07-26T10:47:04.412Z,8.52
2022-07-26T10:50:07.941Z,10.00
2022-07-26T10:53:16.576Z,9.55
2022-07-26T10:56:18.965Z,8.82
2022-07-26T10:59:54.242Z,9.93
2022-07-26T11:02:57.883Z,9.23
2022-07-26T11:06:09.350Z,9.18
2022-07-26T11:09:12.650Z,8.88
2022-07-26T11:12:19.247Z,9.40
2022-07-26T11:15:21.663Z,8.63
2022-07-26T11:18:27.878Z,8.88
2022-07-26T11:21:30.433Z,10.15
2022-07-26T11:24:32.669Z,9.15
2022-07-26T11:27:35.073Z,8.52
2022-07-26T11:30:56.104Z,9.00
2022-07-26T11:33:58.560Z,8.68
2022-07-26T11:37:03.439Z,7.72
2022-07-26T11:40:06.511Z,9.63
2022-07-26T11:43:08.764Z,9.07
2022-07-26T11:46:11.304Z,12.05
2022-07-26T11:49:25.081Z,9.15
2022-07-26T11:52:33.567Z,10.05
2022-07-26T11:55:35.776Z,8.05
2022-07-26T11:58:42.057Z,8.07
2022-07-26T12:01:49.552Z,9.93
2022-07-26T12:05:13.931Z,9.32
2022-07-26T12:08:16.445Z,8.20
2022-07-26T12:11:20.082Z,7.90
2022-07-26T12:14:30.018Z,9.05
2022-07-26T12:20:37.799Z,8.88
2022-07-26T12:23:42.256Z,7.90
2022-07-26T12:26:44.413Z,6.40
2022-07-26T12:29:49.544Z,7.62
2022-07-26T12:32:54.399Z,8.18
2022-07-26T12:36:01.759Z,6.60
2022-07-26T12:39:05.582Z,10.68
2022-07-26T12:42:33.025Z,8.05
2022-07-26T12:45:36.098Z,11.30
2022-07-26T12:48:41.671Z,8.13
2022-07-26T12:51:44.786Z,19.85
2022-07-26T12:54:49.771Z,9.30
2022-07-26T12:57:55.783Z,6.15
2022-07-26T13:00:59.506Z,6.50
2022-07-26T13:04:01.854Z,6.37
2022-07-26T13:07:05.296Z,6.70
2022-07-26T13:13:32.007Z,6.37
2022-07-26T13:16:34.150Z,7.12
2022-07-26T13:19:37.159Z,8.55
2022-07-26T13:22:43.120Z,6.85
2022-07-26T13:25:46.314Z,7.62
2022-07-26T13:28:49.709Z,8.50
2022-07-26T13:31:52.455Z,9.13
2022-07-26T13:34:54.575Z,8.38
2022-07-26T13:37:57.224Z,6.40
2022-07-26T13:41:00.302Z,7.78
2022-07-26T13:44:03.921Z,7.45
2022-07-26T13:47:06.274Z,7.25
2022-07-26T13:50:09.579Z,6.95
2022-07-26T13:53:11.759Z,6.95
2022-07-26T13:56:14.226Z,13.60
2022-07-26T13:59:16.999Z,7.55
2022-07-26T14:02:19.511Z,7.20
2022-07-26T14:05:22.381Z,7.28
2022-07-26T14:08:24.486Z,7.32
2022-07-26T14:11:27.457Z,7.32
2022-07-26T14:14:29.547Z,7.60
2022-07-26T14:17:32.118Z,7.40
2022-07-26T14:20:34.247Z,7.97
2022-07-26T14:23:36.612Z,7.18
2022-07-26T14:26:38.741Z,8.55
2022-07-26T14:29:41.108Z,7.57
2022-07-26T14:32:43.259Z,8.10
2022-07-26T14:35:46.738Z,7.80
2022-07-26T14:38:49.971Z,8.48
2022-07-26T14:41:52.999Z,9.05
2022-07-26T14:44:55.088Z,10.10
2022-07-26T14:47:57.457Z,8.95
2022-07-26T14:51:09.074Z,8.75
2022-07-26T14:54:13.977Z,9.52
2022-07-26T14:57:16.550Z,9.57
2022-07-26T15:00:18.958Z,10.25
2022-07-26T15:03:21.201Z,9.30
2022-07-26T15:06:23.571Z,8.93
2022-07-26T15:09:25.741Z,11.12
2022-07-26T15:12:28.694Z,9.90
2022-07-26T15:15:30.875Z,11.20
2022-07-26T15:18:33.711Z,11.15
2022-07-26T15:21:35.858Z,11.70
2022-07-26T15:24:40.054Z,11.25
2022-07-26T15:27:42.814Z,11.70
2022-07-26T15:30:45.564Z,10.23
2022-07-26T15:33:48.919Z,11.20
2022-07-26T15:36:51.403Z,11.73
2022-07-26T15:39:53.716Z,12.85
2022-07-26T15:42:56.306Z,10.63
2022-07-26T15:45:58.438Z,10.90
2022-07-26T15:49:02.325Z,10.82
2022-07-26T15:52:04.937Z,10.43
2022-07-26T15:55:08.983Z,10.48
2022-07-26T15:58:11.168Z,11.23
2022-07-26T16:01:13.759Z,10.30
2022-07-26T16:04:16.293Z,11.73
2022-07-26T16:07:18.560Z,11.02
2022-07-26T16:10:21.070Z,11.88
2022-07-26T16:13:23.204Z,10.52
2022-07-26T16:16:25.651Z,11.80
2022-07-26T16:19:28.374Z,10.45
2022-07-26T16:22:31.691Z,11.30
2022-07-26T16:25:33.801Z,11.52
2022-07-26T16:28:36.331Z,10.45
2022-07-26T16:31:41.419Z,11.32
2022-07-26T16:34:43.958Z,10.90
2022-07-26T16:37:46.098Z,11.77
2022-07-26T16:40:48.484Z,12.07
2022-07-26T16:43:50.658Z,12.90
2022-07-26T16:46:53.379Z,12.98
2022-07-26T16:49:55.552Z,13.60
2022-07-26T16:52:57.931Z,13.70
2022-07-26T16:56:00.167Z,15.18
2022-07-26T16:59:02.524Z,15.70
2022-07-26T17:02:04.980Z,15.77
2022-07-26T17:05:08.052Z,16.02
2022-07-26T17:08:10.405Z,15.68
2022-07-26T17:11:12.783Z,16.65
2022-07-26T17:14:16.138Z,15.48
2022-07-26T17:17:18.576Z,15.50
2022-07-26T17:20:20.930Z,14.38
2022-07-26T17:23:23.361Z,16.25
2022-07-26T17:26:25.486Z,16.02
2022-07-26T17:29:27.880Z,15.07
2022-07-26T17:32:30.363Z,14.10
2022-07-26T17:35:32.838Z,14.82
2022-07-26T17:38:34.972Z,19.85
2022-07-26T17:41:37.324Z,14.95
2022-07-26T17:44:42.635Z,15.18
2022-07-26T17:47:45.022Z,15.10
2022-07-26T17:50:47.280Z,14.18
2022-07-26T17:53:53.136Z,14.20
2022-07-26T17:56:55.600Z,14.07
2022-07-26T17:59:59.916Z,15.25
2022-07-26T18:03:06.300Z,14.65
2022-07-26T18:06:08.911Z,16.00
2022-07-26T18:09:11.804Z,15.02
2022-07-26T18:12:15.834Z,16.05
2022-07-26T18:15:17.931Z,16.50
2022-07-26T18:18:20.371Z,16.10
2022-07-26T18:21:22.629Z,17.05
2022-07-26T18:24:25.504Z,17.25
2022-07-26T18:27:28.236Z,16.33
2022-07-26T18:30:32.097Z,18.00
2022-07-26T18:33:34.227Z,18.37
2022-07-26T18:36:36.656Z,18.40
2022-07-26T18:39:38.823Z,18.05
2022-07-26T18:42:41.407Z,17.15
2022-07-26T18:45:43.616Z,17.50
2022-07-26T18:48:46.141Z,17.05
2022-07-26T18:51:49.104Z,17.02
2022-07-26T18:54:53.202Z,17.85
2022-07-26T18:57:55.410Z,18.20
2022-07-26T19:00:57.821Z,18.65
2022-07-26T19:04:04.647Z,19.00
2022-07-26T19:07:09.166Z,18.42
2022-07-26T19:10:12.284Z,18.48
2022-07-26T19:13:14.772Z,18.92
2022-07-26T19:16:16.978Z,19.33
2022-07-26T19:19:21.461Z,18.98
2022-07-26T19:22:23.902Z,19.02
2022-07-26T19:25:26.431Z,19.02
2022-07-26T19:28:28.578Z,18.35
2022-07-26T19:31:31.882Z,18.17
2022-07-26T19:34:34.414Z,18.00
2022-07-26T19:37:36.999Z,17.95
2022-07-26T19:40:39.173Z,18.95
2022-07-26T19:43:41.591Z,18.48
2022-07-26T19:46:44.426Z,17.00
2022-07-26T19:49:46.855Z,15.60
2022-07-26T19:52:48.965Z,15.60
2022-07-26T19:55:52.241Z,15.52
2022-07-26T19:59:00.276Z,14.75
2022-07-26T20:02:03.171Z,13.88
2022-07-26T20:05:06.714Z,14.68
2022-07-26T20:08:08.830Z,14.15
2022-07-26T20:11:12.060Z,12.80
2022-07-26T20:14:14.212Z,11.57
2022-07-26T20:17:17.017Z,11.68
2022-07-26T20:20:19.981Z,10.35
2022-07-26T20:23:23.271Z,9.73
2022-07-26T20:26:25.416Z,9.68
2022-07-26T20:29:27.843Z,10.00
2022-07-26T20:32:29.964Z,9.48
2022-07-26T20:35:32.439Z,9.50
2022-07-26T20:38:34.642Z,9.07
2022-07-26T20:41:37.044Z,9.18
2022-07-26T20:44:39.567Z,9.27
2022-07-26T20:47:42.898Z,8.30
2022-07-26T20:50:45.138Z,8.38
2022-07-26T20:53:47.557Z,9.07
2022-07-26T20:56:49.947Z,8.07
2022-07-26T20:59:52.323Z,8.20
2022-07-26T21:02:54.597Z,7.85
2022-07-26T21:05:57.601Z,7.43
2022-07-26T21:08:59.974Z,7.53
2022-07-26T21:12:03.183Z,9.43
2022-07-26T21:15:06.232Z,6.82
2022-07-26T21:18:09.371Z,7.53
2022-07-26T21:21:14.426Z,7.20
2022-07-26T21:24:16.770Z,7.00
2022-07-26T21:27:18.895Z,8.20
2022-07-26T21:30:21.263Z,7.22
2022-07-26T21:33:23.538Z,7.70
2022-07-26T21:36:25.943Z,7.60
2022-07-26T21:39:28.025Z,7.60
2022-07-26T21:42:30.419Z,7.10
2022-07-26T21:45:32.586Z,6.87
2022-07-26T21:48:35.300Z,6.97
2022-07-26T21:51:37.450Z,6.62
2022-07-26T21:54:39.867Z,6.62
2022-07-26T21:57:44.413Z,5.95
2022-07-26T22:00:46.981Z,6.05
2022-07-26T22:03:49.577Z,6.07
2022-07-26T22:06:51.715Z,5.95
2022-07-26T22:09:54.092Z,6.22
2022-07-26T22:12:56.209Z,7.25
2022-07-26T22:15:58.580Z,7.80
2022-07-26T22:19:02.436Z,5.85
2022-07-26T22:22:05.702Z,4.82
2022-07-26T22:25:08.318Z,7.40
2022-07-26T22:28:11.945Z,6.12
2022-07-26T22:31:19.914Z,4.93
2022-07-26T22:34:22.345Z,5.30
2022-07-26T22:37:24.459Z,4.70
2022-07-26T22:40:26.860Z,4.85
2022-07-26T22:43:28.961Z,5.28
2022-07-26T22:46:31.350Z,4.95
2022-07-26T22:49:33.591Z,5.22
2022-07-26T22:52:36.580Z,6.20
2022-07-26T22:55:38.758Z,10.15
2022-07-26T22:58:41.131Z,12.77
2022-07-26T23:01:43.251Z,8.15
2022-07-26T23:04:45.616Z,7.28
2022-07-26T23:07:49.555Z,7.82
2022-07-26T23:10:52.437Z,8.00
2022-07-26T23:13:58.990Z,10.40
2022-07-26T23:17:01.753Z,8.48
2022-07-26T23:20:05.735Z,9.73
2022-07-26T23:23:08.147Z,9.02
2022-07-26T23:26:10.255Z,8.13
2022-07-26T23:29:13.106Z,8.45
2022-07-26T23:32:15.601Z,8.85
2022-07-26T23:35:18.060Z,10.02
2022-07-26T23:38:20.218Z,8.88
2022-07-26T23:41:22.973Z,7.65
2022-07-26T23:44:25.109Z,7.50
2022-07-26T23:47:27.506Z,8.25
2022-07-26T23:50:29.702Z,7.50
2022-07-26T23:53:32.075Z,7.43
2022-07-26T23:56:34.197Z,6.05
2022-07-26T23:59:36.601Z,5.37
